Time;durP1;ratioP1;P1;durP2;ratioP2;P2;SDS_P1;SDS_P2;PMS_P1;PMS_P2;Temp;Humidity;BMP_temperature;BMP_pressure;BME280_temperature;BME280_humidity;BME280_pressure;Samples;Min_cycle;Max_cycle;Signal;HPM_P1;HPM_P2
2021/09/28 00:01:54;;;;;;;3.10;1.60;;;16.90;87.00;;;;;;5034388;28;20999;-76
2021/09/28 00:04:20;;;;;;;1.87;1.70;;;16.80;86.80;;;;;;5035433;28;20614;-74
2021/09/28 00:06:46;;;;;;;2.50;1.20;;;16.80;87.00;;;;;;5032202;28;20189;-73
2021/09/28 00:09:11;;;;;;;1.97;1.20;;;16.80;87.30;;;;;;5033303;28;20271;-74
2021/09/28 00:11:37;;;;;;;1.20;0.80;;;16.70;86.60;;;;;;5033282;28;20187;-75
2021/09/28 00:14:03;;;;;;;2.30;1.40;;;16.60;87.00;;;;;;5027103;28;20193;-75
2021/09/28 00:16:29;;;;;;;3.60;1.50;;;16.40;88.30;;;;;;5032719;28;20201;-76
2021/09/28 00:18:55;;;;;;;2.90;1.37;;;16.20;89.00;;;;;;5032691;28;20453;-74
2021/09/28 00:21:21;;;;;;;0.93;0.87;;;16.10;89.70;;;;;;5032334;28;20960;-72
2021/09/28 00:23:47;;;;;;;1.93;1.37;;;16.20;89.50;;;;;;5030343;28;20238;-74
2021/09/28 00:26:13;;;;;;;1.53;0.93;;;16.20;89.00;;;;;;5030564;28;20189;-73
2021/09/28 00:28:39;;;;;;;1.90;1.10;;;16.00;89.00;;;;;;5031241;28;20803;-74
2021/09/28 00:31:05;;;;;;;2.07;1.37;;;16.00;89.60;;;;;;5032639;28;20655;-75
2021/09/28 00:33:30;;;;;;;1.33;1.20;;;15.90;91.20;;;;;;5031303;28;20656;-75
2021/09/28 00:35:56;;;;;;;2.00;1.40;;;15.60;91.80;;;;;;5032056;28;20211;-75
2021/09/28 00:38:22;;;;;;;3.50;1.63;;;15.30;92.60;;;;;;5030396;28;20209;-74
2021/09/28 00:40:48;;;;;;;3.60;1.23;;;15.30;92.70;;;;;;5029848;28;20432;-72
2021/09/28 00:43:14;;;;;;;1.43;1.20;;;15.10;92.80;;;;;;5031619;28;20185;-73
2021/09/28 00:45:39;;;;;;;2.50;1.20;;;14.90;93.10;;;;;;5032823;28;20248;-72
2021/09/28 00:48:05;;;;;;;2.17;1.13;;;14.80;93.40;;;;;;5032305;28;20205;-74
2021/09/28 00:50:31;;;;;;;1.40;1.00;;;14.80;92.90;;;;;;5031997;28;20201;-73
2021/09/28 00:52:58;;;;;;;2.80;1.00;;;14.90;92.80;;;;;;5031960;28;20425;-73
2021/09/28 00:55:27;;;;;;;1.50;1.03;;;14.90;92.00;;;;;;5027441;28;20335;-73
2021/09/28 00:57:56;;;;;;;5.63;1.23;;;14.90;92.00;;;;;;5027466;28;20444;-73
2021/09/28 01:00:22;;;;;;;4.40;1.77;;;14.80;91.50;;;;;;5031178;28;20423;-73
2021/09/28 01:02:47;;;;;;;2.00;1.10;;;14.80;91.30;;;;;;5031860;28;20523;-73
2021/09/28 01:05:13;;;;;;;1.97;1.00;;;14.60;91.60;;;;;;5030698;28;20535;-74
2021/09/28 01:07:39;;;;;;;1.80;1.23;;;14.60;92.00;;;;;;5032037;28;20212;-74
2021/09/28 01:10:07;;;;;;;3.03;1.47;;;14.70;92.10;;;;;;5031777;28;20224;-74
2021/09/28 01:12:33;;;;;;;4.93;1.40;;;14.80;92.20;;;;;;5030875;28;20265;-72
2021/09/28 01:14:58;;;;;;;2.57;1.13;;;14.90;92.10;;;;;;5031582;28;20517;-73
2021/09/28 01:17:24;;;;;;;5.00;1.50;;;14.90;91.70;;;;;;5031623;28;20205;-74
2021/09/28 01:19:50;;;;;;;5.70;1.37;;;14.80;90.90;;;;;;5031367;28;20416;-76
2021/09/28 01:22:17;;;;;;;6.07;1.30;;;14.60;91.10;;;;;;5030919;28;20565;-73
2021/09/28 01:24:46;;;;;;;2.60;1.40;;;14.60;91.60;;;;;;5031634;28;20220;-73
2021/09/28 01:27:12;;;;;;;4.73;1.47;;;14.50;92.00;;;;;;5032103;28;20877;-73
2021/09/28 01:29:38;;;;;;;2.80;1.33;;;14.40;91.90;;;;;;5032347;28;20514;-76
2021/09/28 01:32:04;;;;;;;2.13;1.20;;;14.30;91.60;;;;;;5025357;28;20420;-75
2021/09/28 01:34:30;;;;;;;5.00;1.30;;;14.30;91.50;;;;;;5028877;28;20636;-74
2021/09/28 01:36:56;;;;;;;3.47;1.20;;;14.20;91.40;;;;;;5032232;28;20471;-73
2021/09/28 01:39:22;;;;;;;4.47;1.80;;;14.20;90.90;;;;;;5030782;28;20428;-73
2021/09/28 01:41:49;;;;;;;5.50;1.40;;;14.10;90.70;;;;;;5031825;28;20474;-72
2021/09/28 01:44:18;;;;;;;4.70;1.30;;;14.10;90.50;;;;;;5031136;28;20494;-75
2021/09/28 01:46:46;;;;;;;2.20;1.20;;;14.20;90.40;;;;;;5032835;28;20431;-75
2021/09/28 01:49:14;;;;;;;2.93;1.60;;;14.40;90.40;;;;;;5034653;28;20493;-74
2021/09/28 01:51:40;;;;;;;4.40;1.20;;;14.40;89.90;;;;;;5037245;28;20416;-73
2021/09/28 01:54:07;;;;;;;6.07;1.30;;;14.40;89.20;;;;;;5038196;28;20412;-74
2021/09/28 01:56:34;;;;;;;3.20;1.60;;;14.40;89.00;;;;;;5035699;28;20475;-72
2021/09/28 01:59:02;;;;;;;6.60;1.60;;;14.40;89.20;;;;;;5033502;28;20443;-73
2021/09/28 02:01:28;;;;;;;2.13;1.20;;;14.50;88.10;;;;;;5037589;28;20435;-74
2021/09/28 02:03:53;;;;;;;2.60;1.50;;;14.50;88.00;;;;;;5037893;28;20427;-74
2021/09/28 02:06:21;;;;;;;3.10;1.60;;;14.50;87.80;;;;;;5035090;28;20439;-75
2021/09/28 02:08:47;;;;;;;2.33;1.00;;;14.50;88.00;;;;;;5037651;28;20229;-74
2021/09/28 02:11:13;;;;;;;7.43;1.90;;;14.50;86.90;;;;;;5036311;28;20911;-74
2021/09/28 02:13:40;;;;;;;2.00;1.23;;;14.50;87.30;;;;;;5032862;28;20491;-75
2021/09/28 02:16:07;;;;;;;2.30;1.23;;;14.50;87.60;;;;;;5039255;28;20788;-74
2021/09/28 02:18:32;;;;;;;3.57;1.30;;;14.50;87.80;;;;;;5029338;28;20436;-76
2021/09/28 02:20:58;;;;;;;1.57;1.20;;;14.50;87.40;;;;;;5030748;28;20420;-76
2021/09/28 02:23:24;;;;;;;4.70;2.40;;;14.50;87.70;;;;;;5023253;28;20205;-73
2021/09/28 02:25:51;;;;;;;4.10;1.70;;;14.50;87.30;;;;;;5030238;28;20195;-75
2021/09/28 02:28:16;;;;;;;1.83;1.20;;;14.50;87.30;;;;;;5030077;28;20447;-74
2021/09/28 02:30:42;;;;;;;3.67;1.30;;;14.60;87.70;;;;;;5030180;28;20471;-71
2021/09/28 02:33:08;;;;;;;3.47;1.40;;;14.60;87.00;;;;;;5029316;28;20230;-72
2021/09/28 02:35:33;;;;;;;2.90;1.50;;;14.60;87.00;;;;;;5026136;28;20181;-73
2021/09/28 02:37:59;;;;;;;2.80;1.30;;;14.60;87.30;;;;;;5029838;28;20706;-75
2021/09/28 02:40:26;;;;;;;4.47;1.37;;;14.60;87.60;;;;;;5029543;28;20189;-72
2021/09/28 02:42:53;;;;;;;4.37;1.47;;;14.60;87.70;;;;;;5029141;28;20548;-74
2021/09/28 02:45:19;;;;;;;4.60;1.50;;;14.60;87.40;;;;;;5029938;28;20423;-73
2021/09/28 02:47:44;;;;;;;7.60;2.13;;;14.60;87.30;;;;;;5030265;28;21104;-74
2021/09/28 02:50:11;;;;;;;2.73;1.80;;;14.60;87.40;;;;;;5028276;28;20504;-73
2021/09/28 02:52:36;;;;;;;8.13;1.70;;;14.70;87.80;;;;;;5027688;28;20184;-74
2021/09/28 02:55:04;;;;;;;3.93;1.60;;;14.80;87.70;;;;;;5029266;28;20425;-75
2021/09/28 02:57:29;;;;;;;3.87;1.77;;;14.80;86.80;;;;;;5029672;28;20201;-73
2021/09/28 02:59:55;;;;;;;2.33;1.37;;;14.80;87.00;;;;;;5029753;28;20821;-75
2021/09/28 03:02:21;;;;;;;4.93;1.40;;;14.80;87.60;;;;;;5029046;28;20264;-75
2021/09/28 03:04:46;;;;;;;2.23;1.30;;;14.80;87.70;;;;;;5028184;28;20192;-73
2021/09/28 03:07:12;;;;;;;4.67;1.30;;;14.70;88.10;;;;;;5029507;28;20189;-72
2021/09/28 03:09:38;;;;;;;3.57;1.47;;;14.50;88.60;;;;;;5029553;28;20213;-75
2021/09/28 03:12:04;;;;;;;3.87;1.50;;;14.50;89.00;;;;;;5028889;28;20183;-72
2021/09/28 03:14:30;;;;;;;3.00;1.70;;;14.40;89.60;;;;;;5029492;28;20189;-74
2021/09/28 03:16:56;;;;;;;5.50;1.90;;;14.40;89.90;;;;;;5029586;28;20917;-74
2021/09/28 03:19:21;;;;;;;3.93;1.50;;;14.20;90.30;;;;;;5030363;28;20440;-75
2021/09/28 03:21:48;;;;;;;2.40;1.23;;;14.20;90.70;;;;;;5027842;28;20627;-71
2021/09/28 03:24:14;;;;;;;3.33;1.70;;;14.20;90.90;;;;;;5028160;28;20181;-73
2021/09/28 03:26:39;;;;;;;3.17;1.60;;;14.20;90.90;;;;;;5030039;28;20522;-76
2021/09/28 03:29:06;;;;;;;3.03;1.70;;;14.10;91.20;;;;;;5029028;28;20208;-75
2021/09/28 03:31:32;;;;;;;5.50;2.10;;;14.10;91.40;;;;;;5027647;28;20291;-73
2021/09/28 03:33:58;;;;;;;5.37;1.70;;;14.10;91.50;;;;;;5029408;28;20412;-75
2021/09/28 03:36:24;;;;;;;3.37;2.10;;;14.00;91.80;;;;;;5029163;28;20486;-74
2021/09/28 03:38:50;;;;;;;3.70;1.50;;;14.00;91.90;;;;;;5029435;28;20606;-74
2021/09/28 03:41:16;;;;;;;2.50;1.63;;;14.00;91.90;;;;;;5029608;28;20193;-75
2021/09/28 03:43:42;;;;;;;3.53;1.97;;;14.00;92.10;;;;;;5028759;28;20263;-75
2021/09/28 03:46:07;;;;;;;3.63;1.70;;;13.90;92.00;;;;;;5030236;28;20463;-74
2021/09/28 03:48:33;;;;;;;2.73;1.80;;;13.90;92.00;;;;;;5029621;28;20486;-73
2021/09/28 03:50:59;;;;;;;2.63;1.93;;;13.90;92.00;;;;;;5029592;28;20747;-75
2021/09/28 03:53:25;;;;;;;6.40;1.80;;;14.00;92.20;;;;;;5025749;28;20550;-73
2021/09/28 03:55:50;;;;;;;6.37;2.13;;;14.00;92.20;;;;;;5024441;28;20216;-73
2021/09/28 03:58:17;;;;;;;16.93;2.33;;;13.90;92.30;;;;;;5029188;28;20293;-73
2021/09/28 04:00:43;;;;;;;3.83;1.97;;;13.90;92.40;;;;;;5032229;28;21219;-75
2021/09/28 04:03:10;;;;;;;5.87;1.87;;;14.00;92.30;;;;;;5032646;28;20424;-75
2021/09/28 04:05:36;;;;;;;10.37;2.30;;;13.90;92.30;;;;;;5033463;28;20951;-73
2021/09/28 04:08:03;;;;;;;3.30;2.07;;;14.00;92.20;;;;;;5030161;28;20556;-73
2021/09/28 04:10:29;;;;;;;6.57;2.10;;;13.90;92.30;;;;;;5025224;28;20463;-73
2021/09/28 04:12:55;;;;;;;4.17;1.93;;;13.90;92.30;;;;;;5037529;28;20425;-72
2021/09/28 04:15:24;;;;;;;3.57;2.03;;;14.00;92.20;;;;;;5042688;28;20185;-75
2021/09/28 04:17:51;;;;;;;5.53;2.50;;;13.80;92.30;;;;;;5045576;28;20451;-75
2021/09/28 04:20:17;;;;;;;6.17;2.00;;;13.80;92.50;;;;;;5039011;28;20929;-74
2021/09/28 04:22:43;;;;;;;8.73;1.80;;;13.80;92.70;;;;;;5032176;28;20419;-74
2021/09/28 04:25:10;;;;;;;6.60;2.10;;;13.80;92.70;;;;;;5033263;28;20197;-75
2021/09/28 04:27:37;;;;;;;3.00;1.93;;;13.70;92.70;;;;;;5032194;28;20495;-75
2021/09/28 04:30:06;;;;;;;5.00;2.93;;;13.70;92.90;;;;;;5031868;28;20985;-74
2021/09/28 04:32:32;;;;;;;4.30;2.30;;;13.60;92.90;;;;;;5032710;28;20427;-73
2021/09/28 04:34:58;;;;;;;6.07;2.07;;;13.50;93.00;;;;;;5038113;28;20428;-77
2021/09/28 04:37:24;;;;;;;2.93;1.80;;;13.50;93.30;;;;;;5039411;28;20228;-72
2021/09/28 04:39:49;;;;;;;5.80;2.43;;;13.60;93.00;;;;;;5040620;28;20189;-74
2021/09/28 04:42:16;;;;;;;7.53;2.10;;;13.50;92.90;;;;;;5039639;28;20181;-74
2021/09/28 04:44:42;;;;;;;3.27;2.33;;;13.40;93.00;;;;;;5033495;28;20275;-75
2021/09/28 04:47:09;;;;;;;5.17;2.63;;;13.50;93.30;;;;;;5038241;28;20523;-73
2021/09/28 04:49:35;;;;;;;5.83;2.40;;;13.50;93.20;;;;;;5040741;28;20523;-75
2021/09/28 04:52:00;;;;;;;2.67;2.00;;;13.30;93.30;;;;;;5034529;28;20856;-74
2021/09/28 04:54:26;;;;;;;7.87;3.20;;;13.30;93.50;;;;;;5022428;28;20479;-73
2021/09/28 04:56:52;;;;;;;3.83;2.53;;;13.30;93.70;;;;;;5030709;28;20185;-74
2021/09/28 04:59:18;;;;;;;6.50;2.47;;;13.30;93.40;;;;;;5032318;28;20233;-73
2021/09/28 05:01:43;;;;;;;4.97;3.10;;;13.30;93.50;;;;;;5033214;28;20647;-74
2021/09/28 05:04:09;;;;;;;6.63;2.97;;;13.20;93.60;;;;;;5028304;28;20231;-75
2021/09/28 05:06:35;;;;;;;5.90;2.97;;;13.20;93.60;;;;;;5032012;28;20189;-76
2021/09/28 05:09:01;;;;;;;5.10;2.67;;;13.10;93.50;;;;;;5031544;28;20224;-74
2021/09/28 05:11:26;;;;;;;5.57;2.60;;;13.00;94.00;;;;;;5030140;28;20185;-73
2021/09/28 05:13:52;;;;;;;5.63;3.63;;;13.00;94.10;;;;;;5027441;28;20190;-72
2021/09/28 05:16:20;;;;;;;6.93;3.53;;;12.90;94.30;;;;;;5029694;28;20188;-72
2021/09/28 05:18:46;;;;;;;7.50;3.20;;;12.90;94.50;;;;;;5027696;28;20206;-73
2021/09/28 05:21:12;;;;;;;11.13;4.60;;;12.90;94.60;;;;;;5030840;28;21000;-73
2021/09/28 05:23:37;;;;;;;19.03;8.10;;;12.90;94.70;;;;;;5028279;28;20550;-73
2021/09/28 05:26:04;;;;;;;9.60;4.87;;;12.90;94.70;;;;;;5030644;28;20563;-73
2021/09/28 05:28:29;;;;;;;8.47;4.10;;;12.90;94.70;;;;;;5030103;28;20387;-73
2021/09/28 05:30:55;;;;;;;7.73;4.13;;;12.90;94.70;;;;;;5029770;28;20562;-73
2021/09/28 05:33:22;;;;;;;9.17;4.43;;;12.90;94.50;;;;;;5028423;28;20188;-73
2021/09/28 05:35:48;;;;;;;12.83;4.67;;;12.90;94.30;;;;;;5030091;28;20192;-72
2021/09/28 05:38:14;;;;;;;5.30;3.40;;;12.90;94.40;;;;;;5029345;28;20455;-72
2021/09/28 05:40:39;;;;;;;7.67;3.70;;;12.90;94.10;;;;;;5028191;28;20201;-72
2021/09/28 05:43:05;;;;;;;6.17;3.77;;;13.00;94.00;;;;;;5031104;28;20193;-72
2021/09/28 05:45:31;;;;;;;9.70;3.90;;;12.90;93.90;;;;;;5031974;28;20186;-72
2021/09/28 05:47:57;;;;;;;5.43;3.40;;;12.90;94.00;;;;;;5031270;28;20205;-71
2021/09/28 05:50:23;;;;;;;11.37;3.63;;;12.90;93.90;;;;;;5032212;28;20815;-72
2021/09/28 05:52:49;;;;;;;8.60;3.07;;;13.00;93.80;;;;;;5032129;28;20205;-72
2021/09/28 05:55:15;;;;;;;5.70;3.53;;;13.00;93.80;;;;;;5031214;28;20464;-72
2021/09/28 05:57:42;;;;;;;4.80;2.70;;;13.00;93.70;;;;;;5030701;28;20205;-72
2021/09/28 06:00:10;;;;;;;11.03;3.30;;;13.00;93.50;;;;;;5029895;28;20459;-72
2021/09/28 06:02:36;;;;;;;9.47;3.30;;;13.10;93.10;;;;;;5030594;28;20428;-71
2021/09/28 06:05:02;;;;;;;9.10;3.23;;;13.10;93.20;;;;;;5027991;28;20423;-72
2021/09/28 06:07:28;;;;;;;8.23;3.50;;;13.10;93.20;;;;;;5030171;28;20539;-71
2021/09/28 06:09:54;;;;;;;6.10;2.50;;;13.20;93.30;;;;;;5029153;28;20992;-72
2021/09/28 06:12:20;;;;;;;6.27;3.23;;;13.20;93.10;;;;;;5029183;28;20416;-72
2021/09/28 06:14:46;;;;;;;6.23;2.87;;;13.20;93.20;;;;;;5029357;28;20541;-72
2021/09/28 06:17:12;;;;;;;4.73;2.67;;;13.20;93.10;;;;;;5030861;28;20474;-72
2021/09/28 06:19:38;;;;;;;3.47;2.60;;;13.10;93.10;;;;;;5030442;28;20860;-72
2021/09/28 06:22:05;;;;;;;10.47;3.33;;;13.00;93.20;;;;;;5029833;28;20214;-71
2021/09/28 06:24:32;;;;;;;9.63;3.43;;;13.10;93.30;;;;;;5031025;28;20203;-72
2021/09/28 06:27:00;;;;;;;9.00;3.60;;;13.10;93.40;;;;;;5031144;28;20513;-72
2021/09/28 06:29:26;;;;;;;8.90;3.77;;;13.30;93.50;;;;;;5029839;28;20463;-73
2021/09/28 06:31:52;;;;;;;6.77;3.93;;;13.40;93.40;;;;;;5032078;28;20420;-73
2021/09/28 06:34:18;;;;;;;13.07;4.00;;;13.50;93.20;;;;;;5031962;28;20453;-72
2021/09/28 06:36:44;;;;;;;6.27;3.50;;;13.60;92.80;;;;;;5030241;28;20201;-74
2021/09/28 06:39:09;;;;;;;5.10;3.10;;;13.70;92.60;;;;;;5030943;28;20209;-72
2021/09/28 06:41:35;;;;;;;8.90;3.40;;;13.70;92.40;;;;;;5031878;28;20193;-72
2021/09/28 06:44:02;;;;;;;7.70;3.50;;;13.80;92.10;;;;;;5030287;28;20210;-72
2021/09/28 06:46:28;;;;;;;8.43;3.63;;;13.90;91.70;;;;;;5029338;28;20424;-72
2021/09/28 06:48:53;;;;;;;7.87;3.80;;;13.80;91.20;;;;;;5030715;28;20454;-72
2021/09/28 06:51:19;;;;;;;5.97;3.23;;;13.60;91.50;;;;;;5029868;28;20434;-74
2021/09/28 06:53:46;;;;;;;8.50;3.43;;;13.60;92.10;;;;;;5031522;28;20218;-73
2021/09/28 06:56:13;;;;;;;9.37;3.70;;;13.80;92.00;;;;;;5031739;28;20194;-72
2021/09/28 06:58:39;;;;;;;5.90;3.70;;;13.80;92.00;;;;;;5032827;28;20432;-72
2021/09/28 07:01:04;;;;;;;8.07;4.00;;;13.90;92.00;;;;;;5031725;28;20494;-72
2021/09/28 07:03:33;;;;;;;11.80;4.40;;;14.10;91.80;;;;;;5031109;28;20969;-73
2021/09/28 07:05:58;;;;;;;15.40;5.83;;;14.20;91.40;;;;;;5032852;28;20664;-73
2021/09/28 07:08:24;;;;;;;7.60;4.50;;;14.40;90.80;;;;;;5027603;28;20438;-74
2021/09/28 07:10:50;;;;;;;9.33;4.67;;;14.50;90.20;;;;;;5034753;28;20204;-72
2021/09/28 07:13:15;;;;;;;12.47;5.30;;;14.60;89.70;;;;;;5033895;28;20211;-73
2021/09/28 07:15:41;;;;;;;13.30;5.30;;;14.60;88.90;;;;;;5030421;28;20180;-73
2021/09/28 07:18:07;;;;;;;14.63;5.97;;;14.60;88.10;;;;;;5028917;28;20294;-74
2021/09/28 07:20:33;;;;;;;18.97;6.23;;;14.60;88.40;;;;;;5029693;28;20185;-73
2021/09/28 07:22:58;;;;;;;8.33;5.47;;;14.60;88.70;;;;;;5029283;28;20244;-72
2021/09/28 07:25:24;;;;;;;9.63;5.40;;;14.60;88.40;;;;;;5030038;28;20273;-72
2021/09/28 07:27:50;;;;;;;12.43;7.50;;;14.60;88.70;;;;;;5028187;28;20243;-72
2021/09/28 07:30:16;;;;;;;13.67;5.73;;;14.70;88.40;;;;;;5029919;28;20627;-74
2021/09/28 07:32:42;;;;;;;16.00;5.90;;;14.80;88.40;;;;;;5025428;28;20277;-74
2021/09/28 07:35:09;;;;;;;11.70;5.37;;;14.80;87.80;;;;;;5029856;28;20298;-72
2021/09/28 07:37:35;;;;;;;12.97;5.90;;;14.70;88.30;;;;;;5033041;28;20547;-72
2021/09/28 07:40:02;;;;;;;15.20;8.70;;;14.80;88.10;;;;;;5033043;28;20510;-71
2021/09/28 07:42:28;;;;;;;16.07;7.80;;;14.70;87.30;;;;;;5033312;28;20208;-71
2021/09/28 07:44:58;;;;;;;17.60;6.90;;;14.50;87.60;;;;;;5031566;28;20895;-72
2021/09/28 07:47:25;;;;;;;11.13;5.40;;;14.50;87.80;;;;;;5032270;28;20216;-72
2021/09/28 07:49:51;;;;;;;14.10;5.70;;;14.40;88.10;;;;;;5032725;28;20475;-71
2021/09/28 07:52:17;;;;;;;14.90;8.53;;;14.30;88.00;;;;;;5032481;28;20424;-74
2021/09/28 07:54:43;;;;;;;10.60;6.63;;;14.20;88.40;;;;;;5032751;28;20273;-72
2021/09/28 07:57:09;;;;;;;21.77;6.90;;;14.20;88.60;;;;;;5032646;28;20864;-72
2021/09/28 07:59:35;;;;;;;15.30;7.83;;;14.30;88.70;;;;;;5032832;28;20420;-72
2021/09/28 08:02:02;;;;;;;11.60;6.80;;;14.30;89.20;;;;;;5032220;28;20219;-73
2021/09/28 08:04:27;;;;;;;18.97;7.13;;;14.30;89.20;;;;;;5024529;28;20415;-72
2021/09/28 08:06:55;;;;;;;15.70;8.00;;;14.40;89.20;;;;;;5032468;28;20431;-71
2021/09/28 08:09:21;;;;;;;14.30;7.67;;;14.40;88.40;;;;;;5032092;28;20565;-70
2021/09/28 08:11:46;;;;;;;13.63;7.70;;;14.50;88.40;;;;;;5027198;28;20431;-73
2021/09/28 08:14:12;;;;;;;12.50;6.70;;;14.50;88.60;;;;;;5030257;28;20416;-73
2021/09/28 08:16:38;;;;;;;11.50;7.13;;;14.60;88.30;;;;;;5032974;28;20174;-72
2021/09/28 08:19:04;;;;;;;10.90;6.70;;;14.70;88.10;;;;;;5030802;28;20270;-72
2021/09/28 08:21:30;;;;;;;21.20;8.97;;;14.90;87.40;;;;;;5031772;28;20481;-74
2021/09/28 08:23:56;;;;;;;16.40;6.73;;;15.10;87.10;;;;;;5032485;28;20423;-73
2021/09/28 08:29:11;;;;;;;12.20;7.57;;;15.50;85.60;;;;;;5031736;28;20615;-72
2021/09/28 08:31:49;;;;;;;14.97;9.67;;;15.70;85.00;;;;;;5025713;28;20424;-71
2021/09/28 08:34:16;;;;;;;12.17;6.67;;;15.80;83.40;;;;;;5032726;28;20483;-75
2021/09/28 08:36:43;;;;;;;9.00;5.60;;;15.90;81.90;;;;;;5032004;28;20443;-71
2021/09/28 08:39:15;;;;;;;11.13;5.77;;;15.90;80.90;;;;;;5031125;28;20458;-73
2021/09/28 08:41:46;;;;;;;9.77;6.00;;;15.90;80.30;;;;;;5032037;28;20463;-72
2021/09/28 08:44:14;;;;;;;15.40;8.27;;;15.90;81.10;;;;;;5030803;28;20454;-72
2021/09/28 08:46:40;;;;;;;10.00;6.60;;;15.80;81.40;;;;;;5030448;28;20423;-72
2021/09/28 08:49:06;;;;;;;12.43;6.07;;;15.80;81.80;;;;;;5026039;28;20544;-72
2021/09/28 08:51:32;;;;;;;11.00;6.13;;;15.90;80.90;;;;;;5031321;28;20539;-74
2021/09/28 08:53:59;;;;;;;12.70;6.70;;;15.90;80.80;;;;;;5031436;28;21003;-72
2021/09/28 08:56:25;;;;;;;14.80;8.57;;;16.00;81.10;;;;;;5030356;28;20478;-73
2021/09/28 08:58:56;;;;;;;15.03;7.50;;;16.10;80.90;;;;;;5031360;28;21142;-74
2021/09/28 09:01:23;;;;;;;20.00;7.30;;;16.10;80.20;;;;;;5031100;28;20426;-72
2021/09/28 09:03:49;;;;;;;9.10;6.77;;;15.90;79.90;;;;;;5031207;28;20511;-74
2021/09/28 09:06:15;;;;;;;14.33;6.60;;;15.70;80.80;;;;;;5031276;28;20515;-73
2021/09/28 09:08:42;;;;;;;11.37;6.60;;;15.60;80.50;;;;;;5031582;28;20201;-72
2021/09/28 09:11:11;;;;;;;10.10;7.30;;;15.50;81.50;;;;;;5031583;28;20186;-72
2021/09/28 09:13:44;;;;;;;13.60;7.57;;;15.50;83.30;;;;;;5031543;28;20518;-74
2021/09/28 09:16:13;;;;;;;10.03;6.83;;;15.60;83.60;;;;;;5031790;28;20415;-74
2021/09/28 09:18:41;;;;;;;14.27;7.40;;;15.70;83.40;;;;;;5029170;28;20485;-73
2021/09/28 09:21:08;;;;;;;11.97;7.50;;;15.90;82.80;;;;;;5030557;28;20743;-72
2021/09/28 09:23:36;;;;;;;13.83;7.47;;;15.90;81.40;;;;;;5031045;28;21009;-74
2021/09/28 09:26:17;;;;;;;14.00;7.07;;;16.00;81.40;;;;;;5030817;28;21224;-73
2021/09/28 09:28:57;;;;;;;13.40;7.30;;;16.20;80.00;;;;;;5030561;28;20504;-72
2021/09/28 09:31:30;;;;;;;12.90;7.67;;;16.20;79.50;;;;;;5029807;28;20435;-71
2021/09/28 09:34:14;;;;;;;7.17;5.67;;;16.30;78.90;;;;;;5029014;28;20473;-72
2021/09/28 09:36:41;;;;;;;8.97;6.27;;;16.40;77.10;;;;;;5030808;28;20985;-71
2021/09/28 09:39:11;;;;;;;8.13;5.67;;;16.30;76.50;;;;;;5022133;28;20870;-73
2021/09/28 09:41:43;;;;;;;9.23;6.03;;;16.50;76.70;;;;;;5030292;28;20434;-73
2021/09/28 09:44:16;;;;;;;8.10;5.80;;;16.80;75.50;;;;;;5030552;28;20431;-73
2021/09/28 09:46:47;;;;;;;13.37;6.20;;;17.00;73.90;;;;;;5029674;28;20447;-72
2021/09/28 09:49:24;;;;;;;12.70;6.90;;;17.00;73.30;;;;;;5030430;28;20475;-73
2021/09/28 09:51:52;;;;;;;10.10;6.40;;;17.00;72.90;;;;;;5030402;28;20427;-73
2021/09/28 09:54:32;;;;;;;9.53;5.30;;;17.00;73.30;;;;;;5030227;28;20426;-72
2021/09/28 09:57:01;;;;;;;7.80;5.40;;;17.10;73.00;;;;;;5028591;28;20440;-73
2021/09/28 09:59:26;;;;;;;20.50;6.53;;;17.20;72.60;;;;;;5030289;28;20420;-72
2021/09/28 10:01:52;;;;;;;8.47;5.70;;;17.30;71.80;;;;;;5028624;28;20522;-73
2021/09/28 10:04:21;;;;;;;8.90;5.40;;;17.10;71.70;;;;;;5030595;28;20213;-73
2021/09/28 10:06:48;;;;;;;6.47;4.30;;;16.90;71.30;;;;;;5027544;28;20449;-73
2021/09/28 10:09:21;;;;;;;6.73;4.87;;;16.90;71.60;;;;;;5028517;28;20479;-71
2021/09/28 10:12:09;;;;;;;8.03;5.00;;;16.70;71.10;;;;;;5030185;28;20873;-73
2021/09/28 10:14:38;;;;;;;7.60;4.63;;;16.70;72.60;;;;;;5029590;28;20416;-74
2021/09/28 10:17:30;;;;;;;7.90;5.57;;;16.80;70.80;;;;;;5031137;28;20459;-72
2021/09/28 10:20:02;;;;;;;7.93;5.30;;;17.00;71.00;;;;;;5034194;28;20426;-74
2021/09/28 10:23:01;;;;;;;7.60;5.10;;;17.20;71.10;;;;;;5033078;28;20432;-74
2021/09/28 10:25:35;;;;;;;8.20;4.80;;;17.40;70.70;;;;;;5031613;28;20470;-73
2021/09/28 10:28:03;;;;;;;12.20;4.67;;;17.50;68.80;;;;;;5029602;28;21131;-74
2021/09/28 10:30:32;;;;;;;7.60;4.20;;;17.60;69.50;;;;;;5028269;28;20471;-72
2021/09/28 10:33:01;;;;;;;9.33;4.77;;;17.80;67.50;;;;;;5029739;28;20506;-73
2021/09/28 10:35:30;;;;;;;5.40;4.00;;;18.00;66.60;;;;;;5029276;28;20467;-75
2021/09/28 10:37:59;;;;;;;10.63;4.20;;;17.80;65.10;;;;;;5024828;28;20465;-75
2021/09/28 10:40:30;;;;;;;6.47;4.10;;;18.00;66.30;;;;;;5029668;28;20416;-72
2021/09/28 10:43:07;;;;;;;11.73;4.63;;;18.40;65.40;;;;;;5018488;28;20429;-74
2021/09/28 10:45:35;;;;;;;6.10;3.93;;;18.60;63.50;;;;;;5023949;28;20523;-74
2021/09/28 10:48:09;;;;;;;6.73;4.23;;;18.90;62.50;;;;;;5029443;28;20457;-73
2021/09/28 10:50:36;;;;;;;6.47;3.90;;;18.90;61.60;;;;;;5029637;28;20467;-71
2021/09/28 10:53:15;;;;;;;5.13;3.70;;;19.20;61.20;;;;;;5028296;28;20435;-73
2021/09/28 10:56:01;;;;;;;4.27;3.47;;;19.30;58.50;;;;;;5029675;28;20481;-72
2021/09/28 10:58:28;;;;;;;5.70;3.17;;;19.00;59.60;;;;;;5028977;28;20450;-75
2021/09/28 11:00:56;;;;;;;9.60;3.57;;;19.00;60.40;;;;;;5029278;28;20424;-74
2021/09/28 11:03:43;;;;;;;7.60;4.03;;;19.10;60.90;;;;;;5029366;28;20427;-74
2021/09/28 11:06:11;;;;;;;9.07;3.83;;;19.20;61.20;;;;;;5026868;28;20437;-74
2021/09/28 11:08:37;;;;;;;14.07;4.57;;;19.10;61.20;;;;;;5034404;28;20527;-74
2021/09/28 11:11:05;;;;;;;8.30;4.20;;;19.40;61.20;;;;;;5035884;28;20555;-73
2021/09/28 11:13:33;;;;;;;5.20;3.80;;;19.60;59.90;;;;;;5035947;28;20446;-74
2021/09/28 11:16:04;;;;;;;4.40;3.57;;;19.60;58.70;;;;;;5036114;28;20506;-72
2021/09/28 11:18:31;;;;;;;5.50;3.43;;;19.20;59.30;;;;;;5035349;28;20442;-74
2021/09/28 11:21:12;;;;;;;5.83;3.20;;;18.90;60.00;;;;;;5029438;28;20467;-74
2021/09/28 11:23:38;;;;;;;11.83;4.80;;;19.20;59.10;;;;;;5036179;28;20419;-74
2021/09/28 11:26:05;;;;;;;7.83;3.33;;;19.70;58.70;;;;;;5025352;28;20439;-73
2021/09/28 11:28:31;;;;;;;11.40;4.27;;;20.20;56.60;;;;;;5035618;28;20439;-73
2021/09/28 11:31:05;;;;;;;9.30;4.13;;;20.50;55.20;;;;;;5034216;28;20471;-73
2021/09/28 11:33:40;;;;;;;7.63;4.50;;;20.70;54.60;;;;;;5036402;28;20424;-72
2021/09/28 11:36:12;;;;;;;12.80;7.43;;;21.00;54.10;;;;;;5036273;28;20472;-71
2021/09/28 11:38:40;;;;;;;6.30;3.60;;;21.30;52.80;;;;;;5036513;28;20482;-72
2021/09/28 11:41:18;;;;;;;9.33;4.67;;;21.60;52.40;;;;;;5031531;28;20491;-71
2021/09/28 11:43:51;;;;;;;10.33;4.20;;;21.90;51.60;;;;;;5034753;28;20440;-71
2021/09/28 11:46:18;;;;;;;11.43;4.73;;;21.70;52.20;;;;;;5030367;28;20462;-72
2021/09/28 11:48:48;;;;;;;9.53;4.50;;;21.40;52.50;;;;;;5035227;28;20453;-73
2021/09/28 11:51:24;;;;;;;7.50;3.70;;;21.20;53.30;;;;;;5034105;28;20516;-72
2021/09/28 11:53:52;;;;;;;7.77;4.70;;;21.40;52.50;;;;;;5032842;28;20514;-72
2021/09/28 11:56:20;;;;;;;9.10;4.67;;;21.50;50.70;;;;;;5034794;28;20421;-72
2021/09/28 11:58:50;;;;;;;10.03;4.00;;;21.20;52.20;;;;;;5039867;28;20453;-72
2021/09/28 12:01:18;;;;;;;5.60;4.20;;;21.30;52.00;;;;;;5036231;28;20434;-73
2021/09/28 12:09:39;;;;;;;10.13;4.67;;;21.20;52.40;;;;;;5035301;28;20562;-72
2021/09/28 12:12:09;;;;;;;7.33;4.23;;;20.60;54.10;;;;;;5025041;28;20421;-73
2021/09/28 12:14:41;;;;;;;7.27;4.57;;;20.50;54.80;;;;;;5033859;28;20502;-71
2021/09/28 12:17:12;;;;;;;11.60;5.43;;;20.00;55.60;;;;;;5030773;28;20799;-73
2021/09/28 12:19:41;;;;;;;10.97;5.43;;;19.60;58.70;;;;;;5035553;28;20431;-74
2021/09/28 12:22:07;;;;;;;12.37;5.43;;;19.60;58.80;;;;;;5032632;28;20455;-73
2021/09/28 12:24:46;;;;;;;12.93;6.10;;;19.60;58.90;;;;;;5032542;28;20433;-71
2021/09/28 12:27:12;;;;;;;9.40;5.83;;;19.70;58.80;;;;;;5032883;28;20437;-72
2021/09/28 12:29:51;;;;;;;9.17;5.10;;;19.50;58.10;;;;;;5030703;28;20476;-72
2021/09/28 12:32:18;;;;;;;7.63;4.20;;;19.30;58.70;;;;;;5032682;28;20516;-72
2021/09/28 12:34:53;;;;;;;8.87;5.87;;;19.20;59.50;;;;;;5032827;28;20787;-72
2021/09/28 12:37:19;;;;;;;8.70;5.00;;;19.20;59.20;;;;;;5026837;28;20650;-72
2021/09/28 12:40:08;;;;;;;9.07;5.00;;;19.70;58.80;;;;;;5032900;28;21061;-71
2021/09/28 12:42:38;;;;;;;9.73;5.53;;;20.30;56.10;;;;;;5030537;28;20428;-72
2021/09/28 12:45:08;;;;;;;13.57;8.33;;;20.40;55.40;;;;;;5032785;28;20428;-72
2021/09/28 12:47:39;;;;;;;16.37;7.00;;;20.20;56.20;;;;;;5031862;28;20452;-74
2021/09/28 12:50:23;;;;;;;9.63;6.03;;;20.60;56.20;;;;;;5031826;28;20472;-73
2021/09/28 12:52:56;;;;;;;9.57;5.20;;;21.00;54.80;;;;;;5023926;28;20526;-73
2021/09/28 12:55:22;;;;;;;14.73;5.80;;;20.90;54.40;;;;;;5031450;28;20419;-71